sensor_id;sensor_type;location;lat;lon;timestamp;temperature;humidity
22769;DHT22;13001;51.968;5.918;2024-01-15T00:01:43;2.50;99.90
22769;DHT22;13001;51.968;5.918;2024-01-15T00:04:12;2.40;99.90
22769;DHT22;13001;51.968;5.918;2024-01-15T00:06:39;2.30;99.90
22769;DHT22;13001;51.968;5.918;2024-01-15T00:09:07;2.20;99.90
22769;DHT22;13001;51.968;5.918;2024-01-15T00:11:36;2.20;99.90
22769;DHT22;13001;51.968;5.918;2024-01-15T00:14:04;2.10;99.90
22769;DHT22;13001;51.968;5.918;2024-01-15T00:16:31;2.10;99.90
22769;DHT22;13001;51.968;5.918;2024-01-15T00:18:59;2.00;99.90
22769;DHT22;13001;51.968;5.918;2024-01-15T00:21:26;2.00;99.90
22769;DHT22;13001;51.968;5.918;2024-01-15T00:23:54;2.00;99.90
22769;DHT22;13001;51.968;5.918;2024-01-15T00:26:22;1.90;99.90
22769;DHT22;13001;51.968;5.918;2024-01-15T00:28:49;1.90;99.90
22769;DHT22;13001;51.968;5.918;2024-01-15T00:31:17;1.90;99.90
22769;DHT22;13001;51.968;5.918;2024-01-15T00:33:46;1.90;99.90
22769;DHT22;13001;51.968;5.918;2024-01-15T00:36:13;1.80;99.90
22769;DHT22;13001;51.968;5.918;2024-01-15T00:38:44;1.80;99.90
22769;DHT22;13001;51.968;5.918;2024-01-15T00:41:14;1.70;99.90
22769;DHT22;13001;51.968;5.918;2024-01-15T00:43:42;1.70;99.90
22769;DHT22;13001;51.968;5.918;2024-01-15T00:46:09;1.70;99.90
22769;DHT22;13001;51.968;5.918;2024-01-15T00:48:37;1.60;99.90
22769;DHT22;13001;51.968;5.918;2024-01-15T00:51:05;1.60;99.90
22769;DHT22;13001;51.968;5.918;2024-01-15T00:53:32;1.60;99.90
22769;DHT22;13001;51.968;5.918;2024-01-15T00:56:00;1.60;99.90
22769;DHT22;13001;51.968;5.918;2024-01-15T00:58:29;1.50;99.90
22769;DHT22;13001;51.968;5.918;2024-01-15T01:00:56;1.50;99.90
22769;DHT22;13001;51.968;5.918;2024-01-15T01:03:24;1.50;99.90
22769;DHT22;13001;51.968;5.918;2024-01-15T01:05:51;1.50;99.90
22769;DHT22;13001;51.968;5.918;2024-01-15T01:08:19;1.50;99.90
22769;DHT22;13001;51.968;5.918;2024-01-15T01:10:46;1.50;99.90
22769;DHT22;13001;51.968;5.918;2024-01-15T01:13:14;1.50;99.90
22769;DHT22;13001;51.968;5.918;2024-01-15T01:15:41;1.50;99.90
22769;DHT22;13001;51.968;5.918;2024-01-15T01:18:09;1.50;99.90
22769;DHT22;13001;51.968;5.918;2024-01-15T01:20:36;1.40;99.90
22769;DHT22;13001;51.968;5.918;2024-01-15T01:23:04;1.40;99.90
22769;DHT22;13001;51.968;5.918;2024-01-15T01:25:31;1.40;99.90
22769;DHT22;13001;51.968;5.918;2024-01-15T01:28:00;1.40;99.90
22769;DHT22;13001;51.968;5.918;2024-01-15T01:30:27;1.40;99.90
22769;DHT22;13001;51.968;5.918;2024-01-15T01:32:55;1.40;99.90
22769;DHT22;13001;51.968;5.918;2024-01-15T01:35:22;1.40;99.90
22769;DHT22;13001;51.968;5.918;2024-01-15T01:37:50;1.40;99.90
22769;DHT22;13001;51.968;5.918;2024-01-15T01:40:17;1.30;99.90
22769;DHT22;13001;51.968;5.918;2024-01-15T01:42:45;1.30;99.90
22769;DHT22;13001;51.968;5.918;2024-01-15T01:45:12;1.30;99.90
22769;DHT22;13001;51.968;5.918;2024-01-15T01:47:40;1.30;99.90
22769;DHT22;13001;51.968;5.918;2024-01-15T01:50:08;1.30;99.90
22769;DHT22;13001;51.968;5.918;2024-01-15T01:52:36;1.30;99.90
22769;DHT22;13001;51.968;5.918;2024-01-15T01:55:05;1.30;99.90
22769;DHT22;13001;51.968;5.918;2024-01-15T01:57:34;1.30;99.90
22769;DHT22;13001;51.968;5.918;2024-01-15T02:00:03;1.30;99.90
22769;DHT22;13001;51.968;5.918;2024-01-15T02:02:32;1.30;99.90
22769;DHT22;13001;51.968;5.918;2024-01-15T02:04:59;1.30;99.90
22769;DHT22;13001;51.968;5.918;2024-01-15T02:07:27;1.30;99.90
22769;DHT22;13001;51.968;5.918;2024-01-15T02:09:55;1.30;99.90
22769;DHT22;13001;51.968;5.918;2024-01-15T02:12:22;1.30;99.90
22769;DHT22;13001;51.968;5.918;2024-01-15T02:14:50;1.30;99.90
22769;DHT22;13001;51.968;5.918;2024-01-15T02:17:17;1.30;99.90
22769;DHT22;13001;51.968;5.918;2024-01-15T02:19:45;1.30;99.90
22769;DHT22;13001;51.968;5.918;2024-01-15T02:22:12;1.20;99.90
22769;DHT22;13001;51.968;5.918;2024-01-15T02:24:40;1.20;99.90
22769;DHT22;13001;51.968;5.918;2024-01-15T02:27:07;1.20;99.90
22769;DHT22;13001;51.968;5.918;2024-01-15T02:29:35;1.20;99.90
22769;DHT22;13001;51.968;5.918;2024-01-15T02:32:07;1.20;99.90
22769;DHT22;13001;51.968;5.918;2024-01-15T02:34:36;1.20;99.90
22769;DHT22;13001;51.968;5.918;2024-01-15T02:37:04;1.20;99.90
22769;DHT22;13001;51.968;5.918;2024-01-15T02:39:31;1.20;99.90
22769;DHT22;13001;51.968;5.918;2024-01-15T02:41:59;1.20;99.90
22769;DHT22;13001;51.968;5.918;2024-01-15T02:44:26;1.20;99.90
22769;DHT22;13001;51.968;5.918;2024-01-15T02:46:54;1.20;99.90
22769;DHT22;13001;51.968;5.918;2024-01-15T02:49:21;1.30;99.90
22769;DHT22;13001;51.968;5.918;2024-01-15T02:51:49;1.40;99.90
22769;DHT22;13001;51.968;5.918;2024-01-15T02:54:16;1.50;99.90
22769;DHT22;13001;51.968;5.918;2024-01-15T02:56:44;1.60;99.90
22769;DHT22;13001;51.968;5.918;2024-01-15T02:59:11;1.80;99.90
22769;DHT22;13001;51.968;5.918;2024-01-15T03:01:39;1.90;99.90
22769;DHT22;13001;51.968;5.918;2024-01-15T03:04:06;2.00;99.90
22769;DHT22;13001;51.968;5.918;2024-01-15T03:06:34;2.00;99.90
22769;DHT22;13001;51.968;5.918;2024-01-15T03:09:01;2.10;99.90
22769;DHT22;13001;51.968;5.918;2024-01-15T03:11:36;2.10;99.90
22769;DHT22;13001;51.968;5.918;2024-01-15T03:13:59;2.00;99.90
22769;DHT22;13001;51.968;5.918;2024-01-15T03:16:26;2.00;99.90
22769;DHT22;13001;51.968;5.918;2024-01-15T03:18:54;2.00;99.90
22769;DHT22;13001;51.968;5.918;2024-01-15T03:21:21;2.00;99.90
22769;DHT22;13001;51.968;5.918;2024-01-15T03:23:49;1.90;99.90
22769;DHT22;13001;51.968;5.918;2024-01-15T03:26:16;1.90;99.90
22769;DHT22;13001;51.968;5.918;2024-01-15T03:28:45;1.70;99.90
22769;DHT22;13001;51.968;5.918;2024-01-15T03:31:13;1.70;99.90
22769;DHT22;13001;51.968;5.918;2024-01-15T03:33:40;1.60;99.90
22769;DHT22;13001;51.968;5.918;2024-01-15T03:36:08;1.60;99.90
22769;DHT22;13001;51.968;5.918;2024-01-15T03:38:42;1.50;99.90
22769;DHT22;13001;51.968;5.918;2024-01-15T03:41:09;1.50;99.90
22769;DHT22;13001;51.968;5.918;2024-01-15T03:43:37;1.50;99.90
22769;DHT22;13001;51.968;5.918;2024-01-15T03:46:04;1.40;99.90
22769;DHT22;13001;51.968;5.918;2024-01-15T03:48:32;1.40;99.90
22769;DHT22;13001;51.968;5.918;2024-01-15T03:50:59;1.40;99.90
22769;DHT22;13001;51.968;5.918;2024-01-15T03:53:27;1.40;99.90
22769;DHT22;13001;51.968;5.918;2024-01-15T03:55:54;1.30;99.90
22769;DHT22;13001;51.968;5.918;2024-01-15T03:58:22;1.30;99.90
22769;DHT22;13001;51.968;5.918;2024-01-15T04:00:49;1.40;99.90
22769;DHT22;13001;51.968;5.918;2024-01-15T04:03:17;1.50;99.90
22769;DHT22;13001;51.968;5.918;2024-01-15T04:05:44;1.60;99.90
22769;DHT22;13001;51.968;5.918;2024-01-15T04:08:12;1.70;99.90
22769;DHT22;13001;51.968;5.918;2024-01-15T04:10:39;1.80;99.90
22769;DHT22;13001;51.968;5.918;2024-01-15T04:13:07;1.90;99.90
22769;DHT22;13001;51.968;5.918;2024-01-15T04:15:34;1.90;99.90
22769;DHT22;13001;51.968;5.918;2024-01-15T04:18:03;2.00;99.90
22769;DHT22;13001;51.968;5.918;2024-01-15T04:20:30;2.00;99.90
22769;DHT22;13001;51.968;5.918;2024-01-15T04:22:58;2.10;99.90
22769;DHT22;13001;51.968;5.918;2024-01-15T04:25:25;2.10;99.90
22769;DHT22;13001;51.968;5.918;2024-01-15T04:27:53;2.10;99.90
22769;DHT22;13001;51.968;5.918;2024-01-15T04:30:20;2.10;99.90
22769;DHT22;13001;51.968;5.918;2024-01-15T04:32:49;2.10;99.90
22769;DHT22;13001;51.968;5.918;2024-01-15T04:35:17;2.00;99.90
22769;DHT22;13001;51.968;5.918;2024-01-15T04:37:44;2.00;99.90
22769;DHT22;13001;51.968;5.918;2024-01-15T04:40:12;2.00;99.90
22769;DHT22;13001;51.968;5.918;2024-01-15T04:42:40;2.00;99.90
22769;DHT22;13001;51.968;5.918;2024-01-15T04:45:07;2.00;99.90
22769;DHT22;13001;51.968;5.918;2024-01-15T04:47:35;2.00;99.90
22769;DHT22;13001;51.968;5.918;2024-01-15T04:50:04;2.00;99.90
22769;DHT22;13001;51.968;5.918;2024-01-15T04:52:32;2.00;99.90
22769;DHT22;13001;51.968;5.918;2024-01-15T04:54:59;1.90;99.90
22769;DHT22;13001;51.968;5.918;2024-01-15T04:57:27;1.80;99.90
22769;DHT22;13001;51.968;5.918;2024-01-15T04:59:54;1.70;99.90
22769;DHT22;13001;51.968;5.918;2024-01-15T05:02:22;1.60;99.90
22769;DHT22;13001;51.968;5.918;2024-01-15T05:04:49;1.60;99.90
22769;DHT22;13001;51.968;5.918;2024-01-15T05:07:17;1.60;99.90
22769;DHT22;13001;51.968;5.918;2024-01-15T05:09:44;1.50;99.90
22769;DHT22;13001;51.968;5.918;2024-01-15T05:12:13;1.40;99.90
22769;DHT22;13001;51.968;5.918;2024-01-15T05:14:41;1.40;99.90
22769;DHT22;13001;51.968;5.918;2024-01-15T05:17:08;1.40;99.90
22769;DHT22;13001;51.968;5.918;2024-01-15T05:19:36;1.40;99.90
22769;DHT22;13001;51.968;5.918;2024-01-15T05:22:03;1.40;99.90
22769;DHT22;13001;51.968;5.918;2024-01-15T05:24:31;1.40;99.90
22769;DHT22;13001;51.968;5.918;2024-01-15T05:26:59;1.40;99.90
22769;DHT22;13001;51.968;5.918;2024-01-15T05:29:26;1.40;99.90
22769;DHT22;13001;51.968;5.918;2024-01-15T05:31:54;1.30;99.90
22769;DHT22;13001;51.968;5.918;2024-01-15T05:34:22;1.30;99.90
22769;DHT22;13001;51.968;5.918;2024-01-15T05:36:49;1.30;99.90
22769;DHT22;13001;51.968;5.918;2024-01-15T05:39:17;1.30;99.90
22769;DHT22;13001;51.968;5.918;2024-01-15T05:41:44;1.30;99.90
22769;DHT22;13001;51.968;5.918;2024-01-15T05:44:12;1.40;99.90
22769;DHT22;13001;51.968;5.918;2024-01-15T05:46:39;1.50;99.90
22769;DHT22;13001;51.968;5.918;2024-01-15T05:49:07;1.60;99.90
22769;DHT22;13001;51.968;5.918;2024-01-15T05:51:34;1.60;99.90
22769;DHT22;13001;51.968;5.918;2024-01-15T05:54:02;1.70;99.90
22769;DHT22;13001;51.968;5.918;2024-01-15T05:56:30;1.80;99.90
22769;DHT22;13001;51.968;5.918;2024-01-15T05:58:57;1.90;99.90
22769;DHT22;13001;51.968;5.918;2024-01-15T06:01:25;1.90;99.90
22769;DHT22;13001;51.968;5.918;2024-01-15T06:03:52;2.00;99.90
22769;DHT22;13001;51.968;5.918;2024-01-15T06:06:20;2.00;99.90
22769;DHT22;13001;51.968;5.918;2024-01-15T06:08:47;2.10;99.90
22769;DHT22;13001;51.968;5.918;2024-01-15T06:11:15;2.10;99.90
22769;DHT22;13001;51.968;5.918;2024-01-15T06:13:42;2.10;99.90
22769;DHT22;13001;51.968;5.918;2024-01-15T06:16:16;2.20;99.90
22769;DHT22;13001;51.968;5.918;2024-01-15T06:18:45;2.20;99.90
22769;DHT22;13001;51.968;5.918;2024-01-15T06:21:13;2.20;99.90
22769;DHT22;13001;51.968;5.918;2024-01-15T06:23:41;2.30;99.90
22769;DHT22;13001;51.968;5.918;2024-01-15T06:26:08;2.30;99.90
22769;DHT22;13001;51.968;5.918;2024-01-15T06:28:36;2.30;99.90
22769;DHT22;13001;51.968;5.918;2024-01-15T06:31:03;2.40;99.90
22769;DHT22;13001;51.968;5.918;2024-01-15T06:33:32;2.40;99.90
22769;DHT22;13001;51.968;5.918;2024-01-15T06:35:59;2.40;99.90
22769;DHT22;13001;51.968;5.918;2024-01-15T06:38:27;2.40;99.90
22769;DHT22;13001;51.968;5.918;2024-01-15T06:40:54;2.40;99.90
22769;DHT22;13001;51.968;5.918;2024-01-15T06:43:22;2.40;99.90
22769;DHT22;13001;51.968;5.918;2024-01-15T06:45:49;2.40;99.90
22769;DHT22;13001;51.968;5.918;2024-01-15T06:48:17;2.40;99.90
22769;DHT22;13001;51.968;5.918;2024-01-15T06:50:45;2.40;99.90
22769;DHT22;13001;51.968;5.918;2024-01-15T06:53:12;2.40;99.90
22769;DHT22;13001;51.968;5.918;2024-01-15T06:55:40;2.30;99.90
22769;DHT22;13001;51.968;5.918;2024-01-15T06:58:07;2.30;99.90
22769;DHT22;13001;51.968;5.918;2024-01-15T07:00:35;2.30;99.90
22769;DHT22;13001;51.968;5.918;2024-01-15T07:03:02;2.30;99.90
22769;DHT22;13001;51.968;5.918;2024-01-15T07:05:30;2.30;99.90
22769;DHT22;13001;51.968;5.918;2024-01-15T07:07:58;2.20;99.90
22769;DHT22;13001;51.968;5.918;2024-01-15T07:10:26;2.20;99.90
22769;DHT22;13001;51.968;5.918;2024-01-15T07:12:53;2.20;99.90
22769;DHT22;13001;51.968;5.918;2024-01-15T07:15:21;2.20;99.90
22769;DHT22;13001;51.968;5.918;2024-01-15T07:17:49;2.20;99.90
22769;DHT22;13001;51.968;5.918;2024-01-15T07:20:16;2.20;99.90
22769;DHT22;13001;51.968;5.918;2024-01-15T07:22:45;2.20;99.90
22769;DHT22;13001;51.968;5.918;2024-01-15T07:25:13;2.20;99.90
22769;DHT22;13001;51.968;5.918;2024-01-15T07:27:41;2.20;99.90
22769;DHT22;13001;51.968;5.918;2024-01-15T07:30:12;2.20;99.90
22769;DHT22;13001;51.968;5.918;2024-01-15T07:32:39;2.20;99.90
22769;DHT22;13001;51.968;5.918;2024-01-15T07:35:08;2.10;99.90
22769;DHT22;13001;51.968;5.918;2024-01-15T07:37:36;2.10;99.90
22769;DHT22;13001;51.968;5.918;2024-01-15T07:40:04;2.10;99.90
22769;DHT22;13001;51.968;5.918;2024-01-15T07:42:34;2.20;99.90
22769;DHT22;13001;51.968;5.918;2024-01-15T07:45:02;2.20;99.90
22769;DHT22;13001;51.968;5.918;2024-01-15T07:47:30;2.20;99.90
22769;DHT22;13001;51.968;5.918;2024-01-15T07:49:57;2.20;99.90
22769;DHT22;13001;51.968;5.918;2024-01-15T07:52:25;2.20;99.90
22769;DHT22;13001;51.968;5.918;2024-01-15T07:54:52;2.20;99.90
22769;DHT22;13001;51.968;5.918;2024-01-15T07:57:20;2.20;99.90
22769;DHT22;13001;51.968;5.918;2024-01-15T07:59:47;2.20;99.90
22769;DHT22;13001;51.968;5.918;2024-01-15T08:02:15;2.20;99.90
22769;DHT22;13001;51.968;5.918;2024-01-15T08:04:43;2.20;99.90
22769;DHT22;13001;51.968;5.918;2024-01-15T08:07:11;2.20;99.90
22769;DHT22;13001;51.968;5.918;2024-01-15T08:09:39;2.20;99.90
22769;DHT22;13001;51.968;5.918;2024-01-15T08:12:07;2.20;99.90
22769;DHT22;13001;51.968;5.918;2024-01-15T08:14:36;2.20;99.90
22769;DHT22;13001;51.968;5.918;2024-01-15T08:17:05;2.20;99.90
22769;DHT22;13001;51.968;5.918;2024-01-15T08:19:32;2.20;99.90
22769;DHT22;13001;51.968;5.918;2024-01-15T08:22:00;2.20;99.90
22769;DHT22;13001;51.968;5.918;2024-01-15T08:24:28;2.20;99.90
22769;DHT22;13001;51.968;5.918;2024-01-15T08:27:01;2.30;99.90
22769;DHT22;13001;51.968;5.918;2024-01-15T08:29:28;2.30;99.90
22769;DHT22;13001;51.968;5.918;2024-01-15T08:31:57;2.30;99.90
22769;DHT22;13001;51.968;5.918;2024-01-15T08:34:25;2.30;99.90
22769;DHT22;13001;51.968;5.918;2024-01-15T08:36:52;2.40;99.90
22769;DHT22;13001;51.968;5.918;2024-01-15T08:39:20;2.40;99.90
22769;DHT22;13001;51.968;5.918;2024-01-15T08:41:47;2.40;99.90
22769;DHT22;13001;51.968;5.918;2024-01-15T08:44:16;2.40;99.90
22769;DHT22;13001;51.968;5.918;2024-01-15T08:46:46;2.40;99.90
22769;DHT22;13001;51.968;5.918;2024-01-15T08:49:13;2.50;99.90
22769;DHT22;13001;51.968;5.918;2024-01-15T08:51:41;2.50;99.90
22769;DHT22;13001;51.968;5.918;2024-01-15T08:54:08;2.60;99.90
22769;DHT22;13001;51.968;5.918;2024-01-15T08:56:36;2.60;99.90
22769;DHT22;13001;51.968;5.918;2024-01-15T08:59:03;2.60;99.90
22769;DHT22;13001;51.968;5.918;2024-01-15T09:01:31;2.60;99.90
22769;DHT22;13001;51.968;5.918;2024-01-15T09:03:58;2.60;99.90
22769;DHT22;13001;51.968;5.918;2024-01-15T09:06:26;2.60;99.90
22769;DHT22;13001;51.968;5.918;2024-01-15T09:08:53;2.60;99.90
22769;DHT22;13001;51.968;5.918;2024-01-15T09:11:21;2.60;99.90
22769;DHT22;13001;51.968;5.918;2024-01-15T09:13:50;2.60;99.90
22769;DHT22;13001;51.968;5.918;2024-01-15T09:16:18;2.60;99.90
22769;DHT22;13001;51.968;5.918;2024-01-15T09:18:46;2.50;99.90
22769;DHT22;13001;51.968;5.918;2024-01-15T09:21:13;2.50;99.90
22769;DHT22;13001;51.968;5.918;2024-01-15T09:23:41;2.60;99.90
22769;DHT22;13001;51.968;5.918;2024-01-15T09:26:09;2.70;99.90
22769;DHT22;13001;51.968;5.918;2024-01-15T09:28:36;2.90;99.90
22769;DHT22;13001;51.968;5.918;2024-01-15T09:31:04;3.20;99.90
22769;DHT22;13001;51.968;5.918;2024-01-15T09:33:32;3.40;99.90
22769;DHT22;13001;51.968;5.918;2024-01-15T09:36:03;3.50;99.90
22769;DHT22;13001;51.968;5.918;2024-01-15T09:38:32;3.60;99.90
22769;DHT22;13001;51.968;5.918;2024-01-15T09:40:59;3.90;99.90
22769;DHT22;13001;51.968;5.918;2024-01-15T09:43:27;4.20;99.90
22769;DHT22;13001;51.968;5.918;2024-01-15T09:45:55;4.90;99.90
22769;DHT22;13001;51.968;5.918;2024-01-15T09:48:23;6.10;99.90
22769;DHT22;13001;51.968;5.918;2024-01-15T09:50:51;6.80;99.90
22769;DHT22;13001;51.968;5.918;2024-01-15T09:53:19;6.90;99.90
22769;DHT22;13001;51.968;5.918;2024-01-15T09:55:49;6.60;99.90
22769;DHT22;13001;51.968;5.918;2024-01-15T09:58:16;6.20;99.90
22769;DHT22;13001;51.968;5.918;2024-01-15T10:00:44;5.80;99.90
22769;DHT22;13001;51.968;5.918;2024-01-15T10:03:14;5.50;99.90
22769;DHT22;13001;51.968;5.918;2024-01-15T10:05:41;5.10;99.90
22769;DHT22;13001;51.968;5.918;2024-01-15T10:08:11;4.80;99.90
22769;DHT22;13001;51.968;5.918;2024-01-15T10:10:38;4.50;99.90
22769;DHT22;13001;51.968;5.918;2024-01-15T10:13:08;4.30;99.90
22769;DHT22;13001;51.968;5.918;2024-01-15T10:15:38;4.30;99.90
22769;DHT22;13001;51.968;5.918;2024-01-15T10:18:05;4.60;99.90
22769;DHT22;13001;51.968;5.918;2024-01-15T10:20:33;5.00;99.90
22769;DHT22;13001;51.968;5.918;2024-01-15T10:23:00;5.50;99.90
22769;DHT22;13001;51.968;5.918;2024-01-15T10:25:29;5.80;99.90
22769;DHT22;13001;51.968;5.918;2024-01-15T10:28:01;6.00;99.90
22769;DHT22;13001;51.968;5.918;2024-01-15T10:30:29;6.50;99.90
22769;DHT22;13001;51.968;5.918;2024-01-15T10:33:01;7.00;99.90
22769;DHT22;13001;51.968;5.918;2024-01-15T10:35:33;7.40;99.90
22769;DHT22;13001;51.968;5.918;2024-01-15T10:38:01;7.20;99.90
22769;DHT22;13001;51.968;5.918;2024-01-15T10:40:32;6.90;99.90
22769;DHT22;13001;51.968;5.918;2024-01-15T10:43:00;6.40;99.90
22769;DHT22;13001;51.968;5.918;2024-01-15T10:45:27;5.90;99.90
22769;DHT22;13001;51.968;5.918;2024-01-15T10:47:57;5.50;99.90
22769;DHT22;13001;51.968;5.918;2024-01-15T10:50:25;5.20;99.90
22769;DHT22;13001;51.968;5.918;2024-01-15T10:52:53;5.20;99.90
22769;DHT22;13001;51.968;5.918;2024-01-15T10:55:21;5.20;99.90
22769;DHT22;13001;51.968;5.918;2024-01-15T10:57:52;5.30;99.90
22769;DHT22;13001;51.968;5.918;2024-01-15T11:00:21;5.30;99.90
22769;DHT22;13001;51.968;5.918;2024-01-15T11:02:50;5.40;99.90
22769;DHT22;13001;51.968;5.918;2024-01-15T11:05:20;5.70;99.90
22769;DHT22;13001;51.968;5.918;2024-01-15T11:07:49;5.70;99.90
22769;DHT22;13001;51.968;5.918;2024-01-15T11:10:40;5.60;99.90
22769;DHT22;13001;51.968;5.918;2024-01-15T11:13:20;5.30;99.90
22769;DHT22;13001;51.968;5.918;2024-01-15T11:16:08;5.10;99.90
22769;DHT22;13001;51.968;5.918;2024-01-15T11:21:23;4.90;99.90
22769;DHT22;13001;51.968;5.918;2024-01-15T11:23:58;4.70;99.90
22769;DHT22;13001;51.968;5.918;2024-01-15T11:31:57;4.90;99.90
22769;DHT22;13001;51.968;5.918;2024-01-15T11:37:13;5.40;99.90
22769;DHT22;13001;51.968;5.918;2024-01-15T11:39:42;5.40;99.90
22769;DHT22;13001;51.968;5.918;2024-01-15T11:42:10;5.40;99.90
22769;DHT22;13001;51.968;5.918;2024-01-15T11:44:38;5.70;99.90
22769;DHT22;13001;51.968;5.918;2024-01-15T11:47:08;6.00;99.90
22769;DHT22;13001;51.968;5.918;2024-01-15T11:49:59;6.20;99.90
22769;DHT22;13001;51.968;5.918;2024-01-15T11:52:31;6.50;99.90
22769;DHT22;13001;51.968;5.918;2024-01-15T11:55:12;6.60;99.90
22769;DHT22;13001;51.968;5.918;2024-01-15T11:57:57;6.70;99.90
22769;DHT22;13001;51.968;5.918;2024-01-15T12:00:22;6.60;99.90
22769;DHT22;13001;51.968;5.918;2024-01-15T12:02:50;6.30;99.90
22769;DHT22;13001;51.968;5.918;2024-01-15T12:05:21;6.20;99.90
22769;DHT22;13001;51.968;5.918;2024-01-15T12:07:49;6.00;99.90
22769;DHT22;13001;51.968;5.918;2024-01-15T12:10:18;5.90;99.90
22769;DHT22;13001;51.968;5.918;2024-01-15T12:12:57;5.90;99.90
22769;DHT22;13001;51.968;5.918;2024-01-15T12:15:29;6.00;99.90
22769;DHT22;13001;51.968;5.918;2024-01-15T12:17:58;6.20;99.90
22769;DHT22;13001;51.968;5.918;2024-01-15T12:20:27;6.20;99.90
22769;DHT22;13001;51.968;5.918;2024-01-15T12:22:55;6.10;99.90
22769;DHT22;13001;51.968;5.918;2024-01-15T12:25:24;6.10;99.90
22769;DHT22;13001;51.968;5.918;2024-01-15T12:27:54;6.10;99.90
22769;DHT22;13001;51.968;5.918;2024-01-15T12:30:21;6.30;99.90
22769;DHT22;13001;51.968;5.918;2024-01-15T12:32:49;6.40;99.90
22769;DHT22;13001;51.968;5.918;2024-01-15T12:35:17;6.60;99.90
22769;DHT22;13001;51.968;5.918;2024-01-15T12:37:45;6.80;99.90
22769;DHT22;13001;51.968;5.918;2024-01-15T12:40:18;7.00;99.90
22769;DHT22;13001;51.968;5.918;2024-01-15T12:42:45;7.00;99.90
22769;DHT22;13001;51.968;5.918;2024-01-15T12:45:13;6.90;99.90
22769;DHT22;13001;51.968;5.918;2024-01-15T12:47:42;6.70;99.90
22769;DHT22;13001;51.968;5.918;2024-01-15T12:50:10;6.40;99.90
22769;DHT22;13001;51.968;5.918;2024-01-15T12:52:40;6.10;99.90
22769;DHT22;13001;51.968;5.918;2024-01-15T12:55:09;6.00;99.90
22769;DHT22;13001;51.968;5.918;2024-01-15T12:57:36;5.90;99.90
22769;DHT22;13001;51.968;5.918;2024-01-15T13:00:05;5.80;99.90
22769;DHT22;13001;51.968;5.918;2024-01-15T13:02:35;5.70;99.90
22769;DHT22;13001;51.968;5.918;2024-01-15T13:05:04;5.70;99.90
22769;DHT22;13001;51.968;5.918;2024-01-15T13:07:32;5.70;99.90
22769;DHT22;13001;51.968;5.918;2024-01-15T13:09:59;5.70;99.90
22769;DHT22;13001;51.968;5.918;2024-01-15T13:12:27;5.70;99.90
22769;DHT22;13001;51.968;5.918;2024-01-15T13:14:54;5.80;99.90
22769;DHT22;13001;51.968;5.918;2024-01-15T13:17:22;5.90;99.90
22769;DHT22;13001;51.968;5.918;2024-01-15T13:19:50;6.10;99.90
22769;DHT22;13001;51.968;5.918;2024-01-15T13:22:18;6.40;99.90
22769;DHT22;13001;51.968;5.918;2024-01-15T13:24:47;6.50;99.90
22769;DHT22;13001;51.968;5.918;2024-01-15T13:27:16;6.50;99.90
22769;DHT22;13001;51.968;5.918;2024-01-15T13:29:43;6.30;99.90
22769;DHT22;13001;51.968;5.918;2024-01-15T13:32:13;6.10;99.90
22769;DHT22;13001;51.968;5.918;2024-01-15T13:34:42;5.90;99.90
22769;DHT22;13001;51.968;5.918;2024-01-15T13:37:10;5.70;99.90
22769;DHT22;13001;51.968;5.918;2024-01-15T13:39:38;5.70;99.90
22769;DHT22;13001;51.968;5.918;2024-01-15T13:42:06;5.70;99.90
22769;DHT22;13001;51.968;5.918;2024-01-15T13:44:33;5.60;99.90
22769;DHT22;13001;51.968;5.918;2024-01-15T13:47:01;5.50;99.90
22769;DHT22;13001;51.968;5.918;2024-01-15T13:49:28;5.40;99.90
22769;DHT22;13001;51.968;5.918;2024-01-15T13:51:56;5.30;99.90
22769;DHT22;13001;51.968;5.918;2024-01-15T13:54:23;5.10;99.90
22769;DHT22;13001;51.968;5.918;2024-01-15T13:56:51;4.90;99.90
22769;DHT22;13001;51.968;5.918;2024-01-15T13:59:18;4.70;99.90
22769;DHT22;13001;51.968;5.918;2024-01-15T14:01:46;4.60;99.90
22769;DHT22;13001;51.968;5.918;2024-01-15T14:04:14;4.40;99.90
22769;DHT22;13001;51.968;5.918;2024-01-15T14:06:41;4.40;99.90
22769;DHT22;13001;51.968;5.918;2024-01-15T14:09:11;4.30;99.90
22769;DHT22;13001;51.968;5.918;2024-01-15T14:11:40;4.30;99.90
22769;DHT22;13001;51.968;5.918;2024-01-15T14:14:07;4.30;99.90
22769;DHT22;13001;51.968;5.918;2024-01-15T14:16:35;4.30;99.90
22769;DHT22;13001;51.968;5.918;2024-01-15T14:19:03;4.40;99.90
22769;DHT22;13001;51.968;5.918;2024-01-15T14:21:32;4.50;99.90
22769;DHT22;13001;51.968;5.918;2024-01-15T14:23:59;4.60;99.90
22769;DHT22;13001;51.968;5.918;2024-01-15T14:26:27;4.70;99.90
22769;DHT22;13001;51.968;5.918;2024-01-15T14:28:54;4.70;99.90
22769;DHT22;13001;51.968;5.918;2024-01-15T14:31:23;4.80;99.90
22769;DHT22;13001;51.968;5.918;2024-01-15T14:33:53;5.00;99.90
22769;DHT22;13001;51.968;5.918;2024-01-15T14:36:21;5.20;99.90
22769;DHT22;13001;51.968;5.918;2024-01-15T14:38:49;5.40;99.90
22769;DHT22;13001;51.968;5.918;2024-01-15T14:41:16;5.40;99.90
22769;DHT22;13001;51.968;5.918;2024-01-15T14:43:47;5.30;99.90
22769;DHT22;13001;51.968;5.918;2024-01-15T14:46:14;5.10;99.90
22769;DHT22;13001;51.968;5.918;2024-01-15T14:48:42;4.90;99.90
22769;DHT22;13001;51.968;5.918;2024-01-15T14:51:11;4.80;99.90
22769;DHT22;13001;51.968;5.918;2024-01-15T14:53:38;4.70;99.90
22769;DHT22;13001;51.968;5.918;2024-01-15T14:56:06;4.70;99.90
22769;DHT22;13001;51.968;5.918;2024-01-15T14:58:34;4.60;99.90
22769;DHT22;13001;51.968;5.918;2024-01-15T15:01:01;4.40;99.90
22769;DHT22;13001;51.968;5.918;2024-01-15T15:03:30;4.40;99.90
22769;DHT22;13001;51.968;5.918;2024-01-15T15:05:57;4.30;99.90
22769;DHT22;13001;51.968;5.918;2024-01-15T15:08:26;4.20;99.90
22769;DHT22;13001;51.968;5.918;2024-01-15T15:10:55;4.10;99.90
22769;DHT22;13001;51.968;5.918;2024-01-15T15:13:23;4.20;99.90
22769;DHT22;13001;51.968;5.918;2024-01-15T15:15:52;4.40;99.90
22769;DHT22;13001;51.968;5.918;2024-01-15T15:18:21;4.50;99.90
22769;DHT22;13001;51.968;5.918;2024-01-15T15:20:49;4.50;99.90
22769;DHT22;13001;51.968;5.918;2024-01-15T15:23:18;4.50;99.90
22769;DHT22;13001;51.968;5.918;2024-01-15T15:25:46;4.40;99.90
22769;DHT22;13001;51.968;5.918;2024-01-15T15:28:13;4.20;99.90
22769;DHT22;13001;51.968;5.918;2024-01-15T15:30:42;4.10;99.90
22769;DHT22;13001;51.968;5.918;2024-01-15T15:33:10;4.00;99.90
22769;DHT22;13001;51.968;5.918;2024-01-15T15:35:37;3.90;99.90
22769;DHT22;13001;51.968;5.918;2024-01-15T15:38:05;3.80;99.90
22769;DHT22;13001;51.968;5.918;2024-01-15T15:40:33;3.80;99.90
22769;DHT22;13001;51.968;5.918;2024-01-15T15:43:00;3.70;99.90
22769;DHT22;13001;51.968;5.918;2024-01-15T15:45:28;3.70;99.90
22769;DHT22;13001;51.968;5.918;2024-01-15T15:47:56;3.70;99.90
22769;DHT22;13001;51.968;5.918;2024-01-15T15:50:23;3.60;99.90
22769;DHT22;13001;51.968;5.918;2024-01-15T15:52:51;3.60;99.90
22769;DHT22;13001;51.968;5.918;2024-01-15T15:55:19;3.50;99.90
22769;DHT22;13001;51.968;5.918;2024-01-15T15:57:47;3.40;99.90
22769;DHT22;13001;51.968;5.918;2024-01-15T16:00:14;3.30;99.90
22769;DHT22;13001;51.968;5.918;2024-01-15T16:02:42;3.20;99.90